Time;durP1;ratioP1;P1;durP2;ratioP2;P2;SDS_P1;SDS_P2;PMS_P1;PMS_P2;Temp;Humidity;BMP_temperature;BMP_pressure;BME280_temperature;BME280_humidity;BME280_pressure;Samples;Min_cycle;Max_cycle;Signal;HPM_P1;HPM_P2
2022/07/05 00:01:27;;;;;;;118.78;18.83;;;;;;;;;;4970677;28;20027;-61
2022/07/05 00:03:54;;;;;;;110.53;20.30;;;;;;;;;;4970250;28;20101;-62
2022/07/05 00:06:21;;;;;;;116.97;20.80;;;;;;;;;;4950163;29;20376;-61
2022/07/05 00:08:49;;;;;;;98.68;17.63;;;;;;;;;;4963308;28;20027;-60
2022/07/05 00:11:16;;;;;;;108.93;18.27;;;;;;;;;;4970164;28;20034;-60
2022/07/05 00:13:42;;;;;;;119.63;19.60;;;;;;;;;;4970332;28;20053;-61
2022/07/05 00:16:09;;;;;;;127.05;19.67;;;;;;;;;;4971508;28;20086;-60
2022/07/05 00:18:36;;;;;;;136.35;20.98;;;;;;;;;;4964971;28;20102;-60
2022/07/05 00:21:03;;;;;;;129.57;20.88;;;;;;;;;;4971606;28;20058;-60
2022/07/05 00:23:30;;;;;;;118.38;19.40;;;;;;;;;;4972269;28;20035;-60
2022/07/05 00:25:57;;;;;;;117.78;19.83;;;;;;;;;;4970319;28;20041;-61
2022/07/05 00:28:24;;;;;;;131.02;20.85;;;;;;;;;;4971380;28;20031;-59
2022/07/05 00:30:51;;;;;;;129.48;23.67;;;;;;;;;;4972098;28;20023;-61
2022/07/05 00:33:18;;;;;;;124.80;22.13;;;;;;;;;;4971138;28;20038;-60
2022/07/05 00:35:45;;;;;;;138.70;22.80;;;;;;;;;;4972621;28;20034;-60
2022/07/05 00:38:12;;;;;;;135.65;22.77;;;;;;;;;;4971762;28;20042;-60
2022/07/05 00:40:39;;;;;;;154.07;24.58;;;;;;;;;;4970002;28;20809;-61
2022/07/05 00:43:06;;;;;;;144.57;23.33;;;;;;;;;;4971802;28;20511;-58
2022/07/05 00:45:33;;;;;;;118.50;20.65;;;;;;;;;;4966469;28;20556;-61
2022/07/05 00:48:00;;;;;;;156.13;23.65;;;;;;;;;;4972121;28;20081;-63
2022/07/05 00:50:27;;;;;;;132.02;22.65;;;;;;;;;;4971581;28;20034;-63
2022/07/05 00:52:55;;;;;;;135.05;22.17;;;;;;;;;;4969184;28;20066;-63
2022/07/05 00:55:22;;;;;;;131.27;21.55;;;;;;;;;;4964322;28;20615;-63
2022/07/05 00:57:50;;;;;;;128.95;21.35;;;;;;;;;;4961952;28;20035;-63
2022/07/05 01:00:17;;;;;;;136.93;21.20;;;;;;;;;;4968102;28;20448;-63
2022/07/05 01:02:44;;;;;;;115.65;20.58;;;;;;;;;;4970814;28;20042;-63
2022/07/05 01:05:11;;;;;;;129.30;20.85;;;;;;;;;;4972273;28;20034;-63
2022/07/05 01:07:38;;;;;;;116.15;20.25;;;;;;;;;;4971862;28;20027;-63
2022/07/05 01:10:06;;;;;;;131.52;21.55;;;;;;;;;;4971437;28;20035;-63
2022/07/05 01:12:32;;;;;;;136.60;22.60;;;;;;;;;;4971344;28;20035;-63
2022/07/05 01:15:00;;;;;;;133.45;23.65;;;;;;;;;;4972656;28;20482;-60
2022/07/05 01:17:27;;;;;;;101.15;22.02;;;;;;;;;;4971030;28;20607;-60
2022/07/05 01:19:54;;;;;;;114.38;22.05;;;;;;;;;;4972773;28;20516;-59
2022/07/05 01:22:21;;;;;;;117.05;21.25;;;;;;;;;;4972044;28;20030;-59
2022/07/05 01:24:49;;;;;;;124.53;20.38;;;;;;;;;;4972184;28;20046;-60
2022/07/05 01:27:16;;;;;;;121.20;22.20;;;;;;;;;;4972492;28;20030;-60
2022/07/05 01:29:43;;;;;;;100.35;19.92;;;;;;;;;;4971904;28;20385;-59
2022/07/05 01:32:11;;;;;;;106.20;18.88;;;;;;;;;;4952919;28;20113;-59
2022/07/05 01:34:39;;;;;;;113.43;21.88;;;;;;;;;;4972001;28;20059;-59
2022/07/05 01:37:06;;;;;;;98.07;19.83;;;;;;;;;;4972606;28;20034;-58
2022/07/05 01:39:33;;;;;;;88.65;19.40;;;;;;;;;;4971540;28;20038;-59
2022/07/05 01:42:00;;;;;;;84.00;17.83;;;;;;;;;;4974398;28;20041;-59
2022/07/05 01:44:27;;;;;;;104.70;19.20;;;;;;;;;;4991470;28;20484;-59
2022/07/05 01:46:56;;;;;;;93.93;19.95;;;;;;;;;;4990760;28;20029;-58
2022/07/05 01:49:25;;;;;;;102.95;19.42;;;;;;;;;;4990619;28;20030;-58
2022/07/05 01:51:55;;;;;;;99.50;20.42;;;;;;;;;;4972724;28;20035;-61
2022/07/05 01:54:22;;;;;;;117.75;22.15;;;;;;;;;;4945816;28;20029;-62
2022/07/05 01:56:49;;;;;;;123.68;21.17;;;;;;;;;;4961535;28;20038;-62
2022/07/05 01:59:16;;;;;;;100.55;20.45;;;;;;;;;;4960059;28;20482;-61
2022/07/05 02:01:43;;;;;;;116.82;21.88;;;;;;;;;;4962546;28;20031;-61
2022/07/05 02:04:11;;;;;;;101.03;21.60;;;;;;;;;;4962890;28;20062;-61
2022/07/05 02:06:38;;;;;;;105.25;19.20;;;;;;;;;;4960527;28;20452;-63
2022/07/05 02:09:06;;;;;;;113.00;21.50;;;;;;;;;;4968185;28;20101;-62
2022/07/05 02:11:33;;;;;;;102.00;21.98;;;;;;;;;;4972036;28;20030;-61
2022/07/05 02:14:00;;;;;;;100.05;19.58;;;;;;;;;;4972437;28;20039;-61
2022/07/05 02:16:28;;;;;;;91.35;19.27;;;;;;;;;;4972039;28;20030;-61
2022/07/05 02:18:55;;;;;;;98.20;20.65;;;;;;;;;;4972621;28;20034;-61
2022/07/05 02:21:22;;;;;;;100.07;19.92;;;;;;;;;;4971727;28;20038;-62
2022/07/05 02:23:50;;;;;;;81.60;17.88;;;;;;;;;;4954519;28;20415;-61
2022/07/05 02:26:17;;;;;;;93.25;19.73;;;;;;;;;;4975577;28;20162;-61
2022/07/05 02:28:44;;;;;;;91.50;19.35;;;;;;;;;;4974082;28;20022;-62
2022/07/05 02:31:11;;;;;;;89.80;18.95;;;;;;;;;;4974258;28;20026;-63
2022/07/05 02:33:38;;;;;;;79.70;18.23;;;;;;;;;;4977017;28;20051;-61
2022/07/05 02:36:11;;;;;;;77.22;18.85;;;;;;;;;;4973118;28;20093;-62
2022/07/05 02:38:39;;;;;;;80.53;17.80;;;;;;;;;;4958998;28;20043;-61
2022/07/05 02:41:07;;;;;;;75.28;18.92;;;;;;;;;;4976052;28;20370;-61
2022/07/05 02:43:34;;;;;;;76.78;17.85;;;;;;;;;;4975876;28;20031;-61
2022/07/05 02:46:01;;;;;;;70.20;17.17;;;;;;;;;;4976485;28;20397;-61
2022/07/05 02:48:28;;;;;;;79.82;17.27;;;;;;;;;;4975816;28;20023;-61
2022/07/05 02:50:55;;;;;;;80.32;19.33;;;;;;;;;;4975657;28;20037;-62
2022/07/05 02:53:22;;;;;;;73.50;17.90;;;;;;;;;;4976249;28;20496;-61
2022/07/05 02:55:49;;;;;;;85.45;18.05;;;;;;;;;;4976341;28;20115;-62
2022/07/05 02:58:19;;;;;;;73.05;18.60;;;;;;;;;;4975488;28;20039;-61
2022/07/05 03:00:47;;;;;;;78.18;17.30;;;;;;;;;;4975662;28;20046;-61
2022/07/05 03:03:15;;;;;;;67.78;16.25;;;;;;;;;;4976125;28;20034;-61
2022/07/05 03:05:42;;;;;;;79.53;17.27;;;;;;;;;;4976187;28;20038;-61
2022/07/05 03:08:09;;;;;;;73.57;17.45;;;;;;;;;;4958242;28;20027;-61
2022/07/05 03:10:36;;;;;;;77.50;17.73;;;;;;;;;;4975319;28;20027;-61
2022/07/05 03:13:03;;;;;;;67.95;16.50;;;;;;;;;;4974798;28;20030;-62
2022/07/05 03:15:31;;;;;;;64.88;16.48;;;;;;;;;;4974496;28;20034;-61
2022/07/05 03:17:58;;;;;;;67.72;17.55;;;;;;;;;;4975919;28;20536;-61
2022/07/05 03:20:25;;;;;;;62.35;15.60;;;;;;;;;;4975249;28;20045;-61
2022/07/05 03:22:52;;;;;;;64.93;15.75;;;;;;;;;;4958409;28;20437;-61
2022/07/05 03:25:19;;;;;;;59.97;16.23;;;;;;;;;;4975888;28;20033;-61
2022/07/05 03:27:46;;;;;;;74.72;16.85;;;;;;;;;;4975402;28;20516;-61
2022/07/05 03:30:14;;;;;;;59.00;14.77;;;;;;;;;;4975015;28;20366;-61
2022/07/05 03:32:41;;;;;;;61.40;15.73;;;;;;;;;;4975362;28;20532;-62
2022/07/05 03:35:08;;;;;;;66.68;15.70;;;;;;;;;;4973928;28;20023;-61
2022/07/05 03:37:36;;;;;;;56.78;15.60;;;;;;;;;;4974773;28;20034;-61
2022/07/05 03:40:03;;;;;;;59.15;14.57;;;;;;;;;;4975686;28;20048;-61
2022/07/05 03:42:30;;;;;;;61.88;15.60;;;;;;;;;;4975649;28;20481;-61
2022/07/05 03:44:57;;;;;;;58.28;14.30;;;;;;;;;;4975047;28;20042;-61
2022/07/05 03:47:24;;;;;;;53.42;14.23;;;;;;;;;;4975855;28;20022;-61
2022/07/05 03:49:51;;;;;;;49.85;13.60;;;;;;;;;;4974928;28;20031;-62
2022/07/05 03:52:18;;;;;;;57.42;14.07;;;;;;;;;;4975069;28;20489;-61
2022/07/05 03:54:45;;;;;;;58.22;14.38;;;;;;;;;;4975445;28;20037;-61
2022/07/05 03:57:13;;;;;;;59.90;14.15;;;;;;;;;;4972516;28;20461;-62
2022/07/05 03:59:40;;;;;;;53.60;14.45;;;;;;;;;;4973099;28;20093;-61
2022/07/05 04:02:08;;;;;;;44.92;12.52;;;;;;;;;;4974790;28;20039;-62
2022/07/05 04:04:35;;;;;;;53.50;14.23;;;;;;;;;;4974758;28;20055;-62
2022/07/05 04:07:02;;;;;;;52.22;13.82;;;;;;;;;;4972643;28;20042;-62
2022/07/05 04:09:29;;;;;;;52.55;14.15;;;;;;;;;;4974278;28;20042;-61
2022/07/05 04:11:56;;;;;;;44.60;12.90;;;;;;;;;;4974674;28;20042;-61
2022/07/05 04:14:23;;;;;;;48.28;13.00;;;;;;;;;;4974270;28;21145;-61
2022/07/05 04:16:50;;;;;;;50.88;12.70;;;;;;;;;;4956614;28;20034;-61
2022/07/05 04:19:17;;;;;;;44.53;13.15;;;;;;;;;;4973993;28;20046;-61
2022/07/05 04:21:44;;;;;;;40.55;12.18;;;;;;;;;;4972999;28;20126;-62
2022/07/05 04:24:11;;;;;;;47.80;12.88;;;;;;;;;;4974506;28;20030;-62
2022/07/05 04:26:39;;;;;;;47.78;13.05;;;;;;;;;;4974201;28;20505;-61
2022/07/05 04:29:06;;;;;;;55.53;13.70;;;;;;;;;;4973783;28;20027;-61
2022/07/05 04:31:33;;;;;;;43.83;13.30;;;;;;;;;;4974223;28;20520;-62
2022/07/05 04:34:00;;;;;;;47.50;12.23;;;;;;;;;;4973625;28;20533;-61
2022/07/05 04:36:27;;;;;;;46.05;12.55;;;;;;;;;;4956722;28;20401;-61
2022/07/05 04:38:54;;;;;;;46.65;12.55;;;;;;;;;;4974175;28;20046;-61
2022/07/05 04:41:21;;;;;;;40.53;11.88;;;;;;;;;;4973740;28;20035;-61
2022/07/05 04:43:48;;;;;;;44.22;11.65;;;;;;;;;;4974245;28;20453;-61
2022/07/05 04:46:15;;;;;;;40.47;11.73;;;;;;;;;;4973595;28;20081;-61
2022/07/05 04:48:42;;;;;;;36.17;10.90;;;;;;;;;;4975883;28;20030;-61
2022/07/05 04:51:09;;;;;;;39.38;11.88;;;;;;;;;;4974442;28;20031;-62
2022/07/05 04:53:36;;;;;;;45.15;12.32;;;;;;;;;;4974294;28;20567;-61
2022/07/05 04:56:05;;;;;;;33.38;10.45;;;;;;;;;;4973585;28;20031;-61
2022/07/05 04:58:32;;;;;;;41.85;12.00;;;;;;;;;;4974236;28;20207;-61
2022/07/05 05:00:59;;;;;;;37.25;10.95;;;;;;;;;;4974211;28;20035;-62
2022/07/05 05:03:26;;;;;;;35.20;10.82;;;;;;;;;;4973436;28;20122;-62
2022/07/05 05:05:53;;;;;;;38.92;12.30;;;;;;;;;;4973995;28;20037;-61
2022/07/05 05:08:20;;;;;;;31.48;11.13;;;;;;;;;;4973777;28;20123;-62
2022/07/05 05:10:47;;;;;;;36.45;10.98;;;;;;;;;;4954832;28;20066;-62
2022/07/05 05:13:13;;;;;;;32.45;11.23;;;;;;;;;;4971918;28;20070;-62
2022/07/05 05:15:40;;;;;;;33.45;10.88;;;;;;;;;;4974062;28;20130;-62
2022/07/05 05:18:07;;;;;;;33.85;10.63;;;;;;;;;;4973039;28;20038;-61
2022/07/05 05:20:34;;;;;;;36.13;10.45;;;;;;;;;;4973480;28;20041;-61
2022/07/05 05:23:01;;;;;;;33.22;10.95;;;;;;;;;;4973797;28;20126;-61
2022/07/05 05:25:30;;;;;;;35.13;10.57;;;;;;;;;;4973520;28;20030;-61
2022/07/05 05:27:57;;;;;;;33.67;9.63;;;;;;;;;;4973652;28;20050;-61
2022/07/05 05:30:24;;;;;;;33.58;10.20;;;;;;;;;;4973069;28;20034;-62
2022/07/05 05:32:51;;;;;;;34.03;9.68;;;;;;;;;;4973835;28;20125;-61
2022/07/05 05:35:20;;;;;;;33.33;10.32;;;;;;;;;;4973486;28;20030;-62
2022/07/05 05:37:51;;;;;;;33.83;9.70;;;;;;;;;;4973332;28;20054;-62
2022/07/05 05:40:18;;;;;;;31.15;9.77;;;;;;;;;;4973611;28;20109;-61
2022/07/05 05:42:45;;;;;;;29.55;9.10;;;;;;;;;;4973340;28;20027;-61
2022/07/05 05:45:13;;;;;;;32.08;9.25;;;;;;;;;;4973033;28;20117;-62
2022/07/05 05:47:53;;;;;;;35.63;9.77;;;;;;;;;;4973310;28;20031;-62
2022/07/05 05:50:24;;;;;;;26.70;9.18;;;;;;;;;;4973326;28;20109;-62
2022/07/05 05:52:51;;;;;;;27.15;9.43;;;;;;;;;;4969934;28;20852;-62
2022/07/05 05:55:19;;;;;;;27.13;9.73;;;;;;;;;;4973700;28;20053;-61
2022/07/05 05:57:46;;;;;;;29.95;9.65;;;;;;;;;;4972801;28;20539;-62
2022/07/05 06:00:14;;;;;;;31.48;9.02;;;;;;;;;;4976641;28;20532;-62
2022/07/05 06:02:42;;;;;;;31.38;9.80;;;;;;;;;;4975668;28;20405;-61
2022/07/05 06:05:09;;;;;;;29.20;9.02;;;;;;;;;;4975598;28;20026;-62
2022/07/05 06:07:45;;;;;;;26.30;9.02;;;;;;;;;;4977005;28;20385;-61
2022/07/05 06:10:15;;;;;;;32.40;9.05;;;;;;;;;;4976693;28;20094;-61
2022/07/05 06:12:42;;;;;;;27.52;9.13;;;;;;;;;;4977162;28;20057;-62
2022/07/05 06:15:09;;;;;;;27.80;7.95;;;;;;;;;;4976739;28;20118;-62
2022/07/05 06:17:37;;;;;;;28.33;8.65;;;;;;;;;;4977010;28;20035;-61
2022/07/05 06:20:08;;;;;;;24.10;8.35;;;;;;;;;;4976517;28;20066;-61
2022/07/05 06:22:36;;;;;;;23.88;8.70;;;;;;;;;;4976977;28;20029;-61
2022/07/05 06:25:03;;;;;;;23.10;8.07;;;;;;;;;;4976851;28;20027;-62
2022/07/05 06:27:30;;;;;;;26.75;8.52;;;;;;;;;;4976488;28;20035;-61
2022/07/05 06:29:57;;;;;;;22.90;7.22;;;;;;;;;;4976600;28;20045;-61
2022/07/05 06:32:25;;;;;;;25.65;7.95;;;;;;;;;;4976187;28;20054;-62
2022/07/05 06:34:52;;;;;;;23.27;7.78;;;;;;;;;;4976755;28;20038;-61
2022/07/05 06:37:19;;;;;;;24.13;7.90;;;;;;;;;;4975852;28;20473;-61
2022/07/05 06:39:45;;;;;;;23.80;8.20;;;;;;;;;;4976931;28;20062;-61
2022/07/05 06:42:12;;;;;;;26.17;8.10;;;;;;;;;;4976262;28;20041;-62
2022/07/05 06:45:04;;;;;;;23.05;7.97;;;;;;;;;;4973889;28;20388;-61
2022/07/05 06:47:31;;;;;;;22.77;8.07;;;;;;;;;;4975246;28;20023;-61
2022/07/05 06:50:02;;;;;;;20.42;7.70;;;;;;;;;;4975502;28;20031;-61
2022/07/05 06:52:29;;;;;;;23.50;7.55;;;;;;;;;;4974995;28;20037;-62
2022/07/05 06:54:57;;;;;;;19.48;7.22;;;;;;;;;;4974613;28;20131;-61
2022/07/05 06:57:24;;;;;;;17.65;6.50;;;;;;;;;;4975630;28;20449;-61
2022/07/05 06:59:52;;;;;;;17.23;6.43;;;;;;;;;;4976144;28;20062;-61
2022/07/05 07:02:19;;;;;;;20.83;7.50;;;;;;;;;;4969900;28;20037;-61
2022/07/05 07:04:47;;;;;;;20.52;6.75;;;;;;;;;;4956488;29;20031;-61
2022/07/05 07:10:00;;;;;;;16.67;6.25;;;;;;;;;;4956683;28;20126;-61
2022/07/05 07:12:29;;;;;;;13.75;5.40;;;;;;;;;;4956794;29;20245;-61
2022/07/05 07:14:56;;;;;;;17.77;6.35;;;;;;;;;;4939662;29;20071;-61
2022/07/05 07:17:24;;;;;;;15.95;6.07;;;;;;;;;;4956530;29;20069;-61
2022/07/05 07:19:51;;;;;;;18.60;6.30;;;;;;;;;;4956728;29;20035;-62
2022/07/05 07:22:18;;;;;;;13.65;6.15;;;;;;;;;;4955793;29;20034;-61
2022/07/05 07:24:45;;;;;;;15.32;5.90;;;;;;;;;;4956490;29;20034;-61
2022/07/05 07:27:12;;;;;;;15.07;5.65;;;;;;;;;;4956350;29;20031;-61
2022/07/05 07:29:39;;;;;;;16.23;6.25;;;;;;;;;;4956781;29;20917;-61
2022/07/05 07:32:07;;;;;;;14.40;5.68;;;;;;;;;;4938135;29;20405;-62
2022/07/05 07:34:34;;;;;;;15.75;6.13;;;;;;;;;;4956611;29;20035;-61
2022/07/05 07:37:01;;;;;;;14.57;5.43;;;;;;;;;;4955043;29;20118;-62
2022/07/05 07:39:28;;;;;;;18.02;5.90;;;;;;;;;;4955380;29;20055;-61
2022/07/05 07:41:55;;;;;;;15.43;5.57;;;;;;;;;;4955271;29;20070;-61
2022/07/05 07:44:22;;;;;;;15.52;6.15;;;;;;;;;;4955540;29;20035;-61
2022/07/05 07:46:50;;;;;;;11.52;5.10;;;;;;;;;;4955735;29;20035;-61
2022/07/05 07:49:17;;;;;;;12.77;5.05;;;;;;;;;;4955514;29;20058;-61
2022/07/05 07:51:44;;;;;;;14.40;4.93;;;;;;;;;;4955215;29;20042;-61
2022/07/05 07:54:11;;;;;;;13.38;4.70;;;;;;;;;;4955489;29;20046;-61
2022/07/05 07:56:38;;;;;;;11.75;4.88;;;;;;;;;;4954060;29;20027;-61
2022/07/05 07:59:05;;;;;;;10.82;4.60;;;;;;;;;;4955683;29;20035;-61
2022/07/05 08:01:32;;;;;;;16.25;5.20;;;;;;;;;;4954981;29;20097;-61
2022/07/05 08:03:59;;;;;;;14.63;5.15;;;;;;;;;;4955318;29;20051;-61
2022/07/05 08:06:26;;;;;;;13.50;4.50;;;;;;;;;;4937877;29;20043;-61
2022/07/05 08:08:53;;;;;;;10.82;4.50;;;;;;;;;;4955177;29;20038;-61
2022/07/05 08:11:20;;;;;;;11.30;4.10;;;;;;;;;;4937784;29;20039;-61
2022/07/05 08:13:47;;;;;;;11.65;4.57;;;;;;;;;;4955132;29;20027;-61
2022/07/05 08:16:14;;;;;;;9.73;4.40;;;;;;;;;;4954980;29;20035;-61
2022/07/05 08:21:37;;;;;;;11.27;4.03;;;;;;;;;;4954287;28;20422;-61
2022/07/05 08:24:05;;;;;;;10.30;3.88;;;;;;;;;;4955063;29;20039;-61
2022/07/05 08:26:32;;;;;;;10.82;4.15;;;;;;;;;;4954954;29;20375;-61
2022/07/05 08:29:01;;;;;;;11.43;3.92;;;;;;;;;;4954832;29;20106;-62
2022/07/05 08:31:32;;;;;;;11.70;4.20;;;;;;;;;;4953468;29;20110;-61
2022/07/05 08:34:00;;;;;;;8.60;3.43;;;;;;;;;;4937120;29;20434;-61
2022/07/05 08:36:27;;;;;;;8.90;4.10;;;;;;;;;;4955495;29;20035;-61
2022/07/05 08:38:54;;;;;;;10.30;4.13;;;;;;;;;;4955245;29;20035;-61
2022/07/05 08:41:22;;;;;;;12.52;4.20;;;;;;;;;;4954918;29;20138;-61
2022/07/05 08:43:49;;;;;;;11.13;3.55;;;;;;;;;;4955345;29;20110;-61
2022/07/05 08:46:17;;;;;;;10.05;3.88;;;;;;;;;;4954653;29;20035;-61
2022/07/05 08:48:45;;;;;;;9.35;3.65;;;;;;;;;;4954973;29;20110;-61
2022/07/05 08:51:30;;;;;;;9.40;3.75;;;;;;;;;;4954513;29;20027;-61
2022/07/05 08:53:57;;;;;;;9.88;3.78;;;;;;;;;;4954910;29;20091;-61
2022/07/05 08:56:23;;;;;;;8.35;3.60;;;;;;;;;;4954808;29;20062;-61
2022/07/05 08:58:50;;;;;;;8.80;3.40;;;;;;;;;;4954701;29;20039;-61
2022/07/05 09:01:18;;;;;;;8.88;3.60;;;;;;;;;;4937344;29;20047;-61
2022/07/05 09:03:47;;;;;;;8.05;3.40;;;;;;;;;;4954550;29;20086;-61
2022/07/05 09:06:17;;;;;;;7.88;2.88;;;;;;;;;;4937298;29;20484;-61
2022/07/05 09:08:44;;;;;;;9.25;3.40;;;;;;;;;;4955055;29;20019;-61
2022/07/05 09:11:14;;;;;;;8.13;2.90;;;;;;;;;;4954111;29;20486;-61
2022/07/05 09:13:43;;;;;;;8.07;3.08;;;;;;;;;;4954937;29;20573;-61
2022/07/05 09:16:11;;;;;;;10.32;3.05;;;;;;;;;;4954115;29;20035;-61
2022/07/05 09:18:42;;;;;;;7.82;3.53;;;;;;;;;;4954392;29;20051;-61
2022/07/05 09:21:21;;;;;;;6.82;2.90;;;;;;;;;;4954864;29;20156;-61
2022/07/05 09:24:01;;;;;;;6.05;3.00;;;;;;;;;;4953940;29;20023;-61
2022/07/05 09:26:35;;;;;;;6.63;3.00;;;;;;;;;;4954809;29;20086;-61
2022/07/05 09:29:03;;;;;;;5.95;3.15;;;;;;;;;;4953846;29;20031;-61
2022/07/05 09:31:31;;;;;;;9.52;3.08;;;;;;;;;;4953954;29;20063;-61
2022/07/05 09:34:05;;;;;;;9.45;3.22;;;;;;;;;;4953853;28;20055;-61
2022/07/05 09:36:50;;;;;;;9.40;2.85;;;;;;;;;;4951809;29;20055;-61
2022/07/05 09:39:17;;;;;;;6.78;3.22;;;;;;;;;;4951615;29;20401;-61
2022/07/05 09:41:44;;;;;;;5.22;2.53;;;;;;;;;;4953228;29;20027;-61
2022/07/05 09:44:11;;;;;;;6.53;2.97;;;;;;;;;;4953143;29;20031;-61
2022/07/05 09:46:38;;;;;;;12.77;3.28;;;;;;;;;;4953551;29;20028;-62
2022/07/05 09:49:05;;;;;;;9.10;3.22;;;;;;;;;;4952181;29;20082;-61
2022/07/05 09:51:48;;;;;;;14.15;3.50;;;;;;;;;;4953136;29;20037;-61
2022/07/05 09:54:15;;;;;;;16.85;3.30;;;;;;;;;;4953550;29;20049;-61
2022/07/05 09:56:48;;;;;;;13.85;3.08;;;;;;;;;;4954368;29;20059;-61
2022/07/05 09:59:18;;;;;;;13.13;3.15;;;;;;;;;;4953608;29;20042;-61
2022/07/05 10:01:45;;;;;;;13.38;3.38;;;;;;;;;;4953560;29;20043;-61
2022/07/05 10:04:12;;;;;;;13.85;2.85;;;;;;;;;;4954283;29;20046;-61
2022/07/05 10:06:40;;;;;;;12.32;2.78;;;;;;;;;;4953747;29;20042;-61
2022/07/05 10:09:08;;;;;;;8.38;2.95;;;;;;;;;;4953572;29;20517;-61
2022/07/05 10:11:35;;;;;;;10.15;3.05;;;;;;;;;;4954370;29;20390;-61
2022/07/05 10:14:04;;;;;;;8.18;2.88;;;;;;;;;;4953585;29;20042;-61
2022/07/05 10:16:31;;;;;;;10.32;3.28;;;;;;;;;;4953625;29;20028;-61
2022/07/05 10:18:58;;;;;;;10.57;2.80;;;;;;;;;;4952726;29;20039;-60
2022/07/05 10:21:27;;;;;;;9.80;2.67;;;;;;;;;;4952939;29;20042;-61
2022/07/05 10:23:55;;;;;;;9.85;3.25;;;;;;;;;;4936159;29;20082;-61
2022/07/05 10:26:23;;;;;;;10.48;3.05;;;;;;;;;;4953606;29;20389;-61
2022/07/05 10:28:51;;;;;;;10.65;3.63;;;;;;;;;;4952428;29;20024;-60
2022/07/05 10:31:18;;;;;;;18.10;3.20;;;;;;;;;;4964351;28;20182;-57
2022/07/05 10:33:46;;;;;;;17.42;3.42;;;;;;;;;;4970963;28;20058;-59
2022/07/05 10:36:13;;;;;;;10.38;3.17;;;;;;;;;;4972315;28;20027;-57
2022/07/05 10:38:43;;;;;;;15.18;3.70;;;;;;;;;;4972090;28;20407;-59
2022/07/05 10:41:12;;;;;;;17.88;3.72;;;;;;;;;;4967823;28;20036;-61
2022/07/05 10:43:39;;;;;;;14.52;3.13;;;;;;;;;;4953135;29;20032;-61
2022/07/05 10:46:07;;;;;;;15.95;2.88;;;;;;;;;;4955712;28;20038;-61
2022/07/05 10:48:35;;;;;;;20.60;3.28;;;;;;;;;;4956732;29;20027;-61
2022/07/05 10:51:14;;;;;;;14.23;3.70;;;;;;;;;;4955588;29;20050;-59
2022/07/05 10:53:41;;;;;;;15.65;3.30;;;;;;;;;;4956392;29;20043;-61
2022/07/05 10:56:08;;;;;;;8.95;2.67;;;;;;;;;;4955682;29;20043;-59
2022/07/05 10:58:40;;;;;;;9.63;2.30;;;;;;;;;;4956340;29;20043;-59
2022/07/05 11:01:14;;;;;;;12.40;2.50;;;;;;;;;;4955535;29;20481;-48
2022/07/05 11:03:45;;;;;;;11.50;3.10;;;;;;;;;;4955574;29;20114;-61
2022/07/05 11:06:38;;;;;;;14.23;3.25;;;;;;;;;;4954524;29;20474;-54
2022/07/05 11:09:05;;;;;;;;;;;;;;;;;;4953323;29;20118;-57
2022/07/05 11:11:42;;;;;;;25.50;3.55;;;;;;;;;;4955266;29;19918;-58
2022/07/05 11:14:29;;;;;;;20.67;4.38;;;;;;;;;;4955736;29;20054;-55
2022/07/05 11:17:16;;;;;;;16.73;3.25;;;;;;;;;;4955849;29;20038;-59
2022/07/05 11:20:15;;;;;;;10.63;2.75;;;;;;;;;;4955672;29;20708;-52
2022/07/05 11:23:01;;;;;;;12.60;3.40;;;;;;;;;;4914923;29;20082;-62
2022/07/05 11:25:33;;;;;;;12.30;2.60;;;;;;;;;;4938968;29;20063;-64
2022/07/05 11:28:03;;;;;;;17.95;3.30;;;;;;;;;;4954880;29;20031;-60
2022/07/05 11:30:30;;;;;;;14.65;2.65;;;;;;;;;;4955272;29;20036;-65
2022/07/05 11:32:59;;;;;;;16.10;2.83;;;;;;;;;;4955131;29;20051;-62
2022/07/05 11:35:33;;;;;;;13.20;3.00;;;;;;;;;;4938484;29;20061;-62
2022/07/05 11:38:01;;;;;;;9.70;2.78;;;;;;;;;;4954970;29;20043;-62
2022/07/05 11:40:40;;;;;;;8.70;2.60;;;;;;;;;;4955317;29;20035;-62
2022/07/05 11:43:08;;;;;;;10.10;2.50;;;;;;;;;;4955688;29;20035;-62
2022/07/05 11:45:35;;;;;;;13.00;2.95;;;;;;;;;;4955988;29;20035;-61
2022/07/05 11:48:02;;;;;;;9.02;2.45;;;;;;;;;;4955765;29;20038;-62
2022/07/05 11:50:33;;;;;;;12.93;2.90;;;;;;;;;;4955574;29;20027;-62
2022/07/05 11:53:03;;;;;;;15.02;3.65;;;;;;;;;;4938611;29;20035;-62
2022/07/05 11:55:30;;;;;;;9.18;2.42;;;;;;;;;;4955869;28;20069;-62
2022/07/05 11:57:58;;;;;;;8.55;2.55;;;;;;;;;;4954324;29;20039;-62
2022/07/05 12:00:30;;;;;;;12.05;2.72;;;;;;;;;;4955900;29;20031;-62
2022/07/05 12:02:57;;;;;;;12.07;2.67;;;;;;;;;;4955926;29;20506;-62
2022/07/05 12:05:24;;;;;;;7.93;2.50;;;;;;;;;;4956018;29;20094;-62
2022/07/05 12:07:52;;;;;;;7.85;2.40;;;;;;;;;;4954152;29;20031;-62
2022/07/05 12:13:05;;;;;;;7.97;2.50;;;;;;;;;;4955486;29;20406;-62
2022/07/05 12:15:32;;;;;;;9.57;2.70;;;;;;;;;;4955487;29;20042;-62
2022/07/05 12:18:03;;;;;;;7.75;2.38;;;;;;;;;;4937958;29;20027;-62
2022/07/05 12:20:30;;;;;;;9.88;2.95;;;;;;;;;;4955400;29;20390;-62
2022/07/05 12:23:01;;;;;;;7.13;2.40;;;;;;;;;;4954921;29;20055;-62
2022/07/05 12:25:29;;;;;;;8.38;2.70;;;;;;;;;;4955034;29;20114;-62
2022/07/05 12:27:57;;;;;;;6.72;2.50;;;;;;;;;;4955303;29;20025;-62
2022/07/05 12:30:25;;;;;;;9.88;2.67;;;;;;;;;;4954481;29;20031;-62
2022/07/05 12:32:55;;;;;;;6.43;2.33;;;;;;;;;;4937614;29;20134;-62
2022/07/05 12:35:41;;;;;;;8.57;2.10;;;;;;;;;;4955166;29;20394;-62
2022/07/05 12:38:21;;;;;;;6.25;2.38;;;;;;;;;;4954730;29;20110;-62
2022/07/05 12:40:58;;;;;;;10.40;2.42;;;;;;;;;;4937933;29;20039;-62
2022/07/05 12:43:25;;;;;;;9.23;2.47;;;;;;;;;;4954401;29;20027;-62
2022/07/05 12:46:05;;;;;;;5.25;2.20;;;;;;;;;;4954096;29;20019;-62
2022/07/05 12:48:36;;;;;;;9.38;2.20;;;;;;;;;;4951154;29;20130;-62
2022/07/05 12:51:04;;;;;;;7.93;2.40;;;;;;;;;;4954659;29;20034;-62
2022/07/05 12:59:03;;;;;;;5.05;2.25;;;;;;;;;;4952185;29;20101;-62
2022/07/05 13:01:39;;;;;;;8.63;2.15;;;;;;;;;;4953854;29;20046;-62
2022/07/05 13:04:09;;;;;;;9.70;2.92;;;;;;;;;;4954660;29;20050;-62
2022/07/05 13:06:57;;;;;;;9.48;2.45;;;;;;;;;;4954648;29;20063;-62
2022/07/05 13:09:30;;;;;;;8.43;2.50;;;;;;;;;;4953599;29;20067;-61
2022/07/05 13:12:07;;;;;;;11.15;2.15;;;;;;;;;;4954178;29;20042;-62
2022/07/05 13:14:34;;;;;;;9.40;2.30;;;;;;;;;;4953295;29;20759;-62
2022/07/05 13:17:02;;;;;;;6.93;2.22;;;;;;;;;;4953367;29;20413;-61
2022/07/05 13:19:29;;;;;;;6.95;2.33;;;;;;;;;;4953803;29;20485;-62
2022/07/05 13:21:56;;;;;;;8.18;2.88;;;;;;;;;;4953244;29;20031;-61
2022/07/05 13:24:23;;;;;;;13.98;3.50;;;;;;;;;;4936982;29;20512;-61
2022/07/05 13:26:50;;;;;;;10.93;4.47;;;;;;;;;;4953479;29;20035;-62
2022/07/05 13:29:17;;;;;;;17.50;5.85;;;;;;;;;;4936245;29;20382;-62
2022/07/05 13:31:44;;;;;;;13.52;5.95;;;;;;;;;;4953725;29;20035;-62
2022/07/05 13:34:11;;;;;;;18.33;6.20;;;;;;;;;;4935933;29;20051;-62
2022/07/05 13:36:37;;;;;;;20.70;6.38;;;;;;;;;;4953456;29;20039;-61
2022/07/05 13:39:04;;;;;;;17.88;6.70;;;;;;;;;;4946900;29;20039;-61
2022/07/05 13:41:32;;;;;;;15.30;6.30;;;;;;;;;;4938683;29;20491;-61
2022/07/05 13:44:01;;;;;;;15.95;6.53;;;;;;;;;;4950453;29;20493;-61
2022/07/05 13:46:28;;;;;;;21.25;6.40;;;;;;;;;;4946628;29;20035;-61
2022/07/05 13:48:55;;;;;;;15.05;5.78;;;;;;;;;;4947229;29;20035;-61
2022/07/05 13:51:22;;;;;;;16.25;6.20;;;;;;;;;;4942873;29;20027;-61
2022/07/05 13:53:49;;;;;;;18.85;5.68;;;;;;;;;;4943653;29;20031;-61
2022/07/05 13:56:16;;;;;;;22.27;5.43;;;;;;;;;;4946709;29;20541;-62
2022/07/05 13:58:43;;;;;;;20.58;5.68;;;;;;;;;;4939165;28;20071;-62
2022/07/05 14:01:10;;;;;;;22.05;5.90;;;;;;;;;;4947260;29;20028;-61
2022/07/05 14:03:37;;;;;;;22.00;5.55;;;;;;;;;;4947272;29;20046;-63
2022/07/05 14:06:04;;;;;;;22.08;5.07;;;;;;;;;;4950696;29;20037;-61
2022/07/05 14:08:31;;;;;;;13.93;5.03;;;;;;;;;;4947627;29;20505;-62
2022/07/05 14:10:58;;;;;;;13.00;5.15;;;;;;;;;;4943940;29;20552;-62
2022/07/05 14:13:26;;;;;;;15.75;5.15;;;;;;;;;;4946607;28;20763;-61
2022/07/05 14:15:54;;;;;;;14.70;5.13;;;;;;;;;;4941500;28;20042;-61
2022/07/05 14:18:21;;;;;;;12.35;4.90;;;;;;;;;;4947735;29;20039;-60
2022/07/05 14:20:49;;;;;;;20.58;4.65;;;;;;;;;;4939344;29;20027;-60
2022/07/05 14:23:16;;;;;;;13.50;4.03;;;;;;;;;;4950451;29;20038;-59
2022/07/05 14:25:43;;;;;;;16.95;4.72;;;;;;;;;;4942299;29;20385;-60
2022/07/05 14:28:10;;;;;;;20.90;4.20;;;;;;;;;;4952084;29;20028;-60
2022/07/05 14:30:39;;;;;;;22.63;4.28;;;;;;;;;;4951847;29;20042;-59
2022/07/05 14:33:06;;;;;;;24.38;4.25;;;;;;;;;;4948745;29;20069;-59
2022/07/05 14:35:34;;;;;;;26.80;5.07;;;;;;;;;;4949138;29;20031;-60
2022/07/05 14:38:01;;;;;;;23.35;3.80;;;;;;;;;;4945664;29;20413;-60
2022/07/05 14:40:30;;;;;;;25.95;3.72;;;;;;;;;;4948204;29;20066;-60
2022/07/05 14:43:00;;;;;;;25.15;4.25;;;;;;;;;;4951691;29;20114;-61
2022/07/05 14:45:28;;;;;;;29.05;4.30;;;;;;;;;;4951747;29;20051;-60
2022/07/05 14:47:55;;;;;;;26.58;4.28;;;;;;;;;;4937519;29;20066;-60